createdAt,value
2023-02-12T00:00:15.429Z,6.44
2023-02-12T00:01:15.419Z,6.49
2023-02-12T00:02:15.659Z,6.45
2023-02-12T00:03:15.434Z,6.28
2023-02-12T00:04:15.378Z,6.19
2023-02-12T00:05:15.368Z,6.11
2023-02-12T00:06:16.151Z,6.09
2023-02-12T00:07:15.350Z,5.99
2023-02-12T00:08:15.331Z,6.01
2023-02-12T00:09:15.312Z,5.94
2023-02-12T00:10:15.301Z,5.94
2023-02-12T00:11:15.294Z,5.94
2023-02-12T00:12:15.286Z,5.86
2023-02-12T00:13:15.282Z,5.86
2023-02-12T00:14:15.254Z,5.89
2023-02-12T00:15:15.232Z,5.94
2023-02-12T00:16:15.343Z,5.98
2023-02-12T00:17:15.225Z,5.98
2023-02-12T00:18:15.193Z,5.91
2023-02-12T00:19:15.180Z,5.90
2023-02-12T00:20:15.171Z,5.93
2023-02-12T00:21:15.152Z,5.94
2023-02-12T00:22:15.160Z,6.02
2023-02-12T00:23:15.133Z,6.07
2023-02-12T00:24:15.121Z,6.07
2023-02-12T00:25:15.114Z,6.16
2023-02-12T00:26:15.101Z,6.17
2023-02-12T00:27:15.108Z,6.17
2023-02-12T00:28:15.111Z,6.20
2023-02-12T00:29:15.083Z,6.22
2023-02-12T00:30:15.051Z,6.24
2023-02-12T00:31:15.211Z,6.28
2023-02-12T00:32:15.014Z,6.28
2023-02-12T00:33:15.030Z,6.36
2023-02-12T00:34:14.990Z,6.28
2023-02-12T00:35:14.972Z,6.19
2023-02-12T00:36:14.958Z,6.12
2023-02-12T00:37:14.947Z,6.19
2023-02-12T00:38:14.947Z,6.14
2023-02-12T00:39:14.925Z,6.16
2023-02-12T00:40:14.908Z,6.17
2023-02-12T00:41:14.897Z,6.24
2023-02-12T00:42:14.881Z,6.33
2023-02-12T00:43:14.895Z,6.36
2023-02-12T00:44:14.876Z,6.38
2023-02-12T00:45:14.871Z,6.41
2023-02-12T00:46:14.892Z,6.39
2023-02-12T00:47:14.821Z,6.35
2023-02-12T00:48:14.823Z,6.28
2023-02-12T00:49:14.790Z,6.27
2023-02-12T00:50:14.777Z,6.35
2023-02-12T00:51:14.774Z,6.42
2023-02-12T00:52:14.762Z,6.38
2023-02-12T00:53:14.763Z,6.38
2023-02-12T00:54:14.729Z,6.38
2023-02-12T00:55:14.715Z,6.33
2023-02-12T00:56:14.717Z,6.38
2023-02-12T00:57:14.692Z,6.28
2023-02-12T00:58:16.687Z,6.30
2023-02-12T00:59:14.667Z,6.28
2023-02-12T01:00:14.657Z,6.27
2023-02-12T01:01:14.693Z,6.24
2023-02-12T01:02:14.628Z,6.20
2023-02-12T01:03:14.627Z,6.19
2023-02-12T01:04:14.625Z,6.14
2023-02-12T01:05:14.646Z,6.09
2023-02-12T01:06:14.569Z,6.11
2023-02-12T01:07:14.568Z,6.08
2023-02-12T01:08:14.577Z,6.05
2023-02-12T01:09:14.532Z,6.02
2023-02-12T01:10:14.520Z,6.08
2023-02-12T01:11:14.514Z,6.08
2023-02-12T01:12:14.502Z,6.09
2023-02-12T01:13:14.498Z,6.01
2023-02-12T01:14:14.486Z,6.01
2023-02-12T01:15:14.459Z,6.02
2023-02-12T01:16:14.554Z,5.97
2023-02-12T01:17:14.451Z,5.91
2023-02-12T01:18:14.434Z,5.87
2023-02-12T01:19:14.436Z,5.80
2023-02-12T01:20:14.390Z,5.76
2023-02-12T01:21:14.380Z,5.72
2023-02-12T01:22:14.365Z,5.69
2023-02-12T01:23:14.369Z,5.69
2023-02-12T01:24:14.337Z,5.68
2023-02-12T01:25:14.326Z,5.73
2023-02-12T01:26:14.315Z,5.72
2023-02-12T01:27:14.299Z,5.75
2023-02-12T01:28:14.340Z,5.80
2023-02-12T01:29:14.280Z,5.83
2023-02-12T01:30:14.269Z,5.83
2023-02-12T01:31:14.335Z,5.86
2023-02-12T01:32:14.380Z,5.90
2023-02-12T01:33:14.261Z,5.93
2023-02-12T01:34:14.208Z,5.94
2023-02-12T01:35:14.209Z,5.91
2023-02-12T01:36:14.193Z,5.80
2023-02-12T01:37:14.178Z,5.84
2023-02-12T01:38:14.168Z,5.80
2023-02-12T01:39:14.154Z,5.80
2023-02-12T01:40:14.131Z,5.89
2023-02-12T01:41:14.121Z,5.93
2023-02-12T01:42:14.104Z,5.91
2023-02-12T01:43:14.104Z,5.97
2023-02-12T01:44:14.088Z,5.99
2023-02-12T01:45:14.062Z,5.90
2023-02-12T01:46:14.166Z,5.89
2023-02-12T01:47:14.036Z,5.84
2023-02-12T01:48:14.039Z,5.93
2023-02-12T01:49:14.038Z,5.86
2023-02-12T01:50:14.024Z,5.91
2023-02-12T01:51:13.997Z,5.91
2023-02-12T01:52:13.981Z,6.04
2023-02-12T01:53:13.975Z,6.04
2023-02-12T01:54:13.948Z,6.08
2023-02-12T01:55:13.944Z,6.17
2023-02-12T01:56:13.922Z,6.17
2023-02-12T01:57:13.910Z,6.17
2023-02-12T01:58:13.908Z,6.20
2023-02-12T01:59:13.901Z,6.19
2023-02-12T02:00:13.872Z,6.26
2023-02-12T02:01:13.876Z,6.27
2023-02-12T02:02:13.848Z,6.24
2023-02-12T02:03:13.901Z,6.28
2023-02-12T02:04:13.830Z,6.27
2023-02-12T02:05:13.824Z,6.26
2023-02-12T02:06:13.798Z,6.26
2023-02-12T02:07:13.780Z,6.26
2023-02-12T02:08:13.783Z,6.27
2023-02-12T02:09:13.752Z,6.26
2023-02-12T02:10:13.748Z,6.28
2023-02-12T02:11:13.728Z,6.24
2023-02-12T02:12:13.735Z,6.20
2023-02-12T02:13:13.717Z,6.19
2023-02-12T02:14:13.685Z,6.17
2023-02-12T02:15:13.679Z,6.20
2023-02-12T02:16:13.708Z,6.14
2023-02-12T02:17:13.649Z,6.17
2023-02-12T02:18:13.660Z,6.14
2023-02-12T02:19:13.616Z,6.19
2023-02-12T02:20:13.601Z,6.11
2023-02-12T02:21:13.608Z,6.11
2023-02-12T02:22:13.581Z,6.11
2023-02-12T02:23:13.562Z,6.12
2023-02-12T02:24:13.590Z,6.17
2023-02-12T02:25:13.536Z,6.14
2023-02-12T02:26:13.527Z,6.11
2023-02-12T02:27:13.515Z,6.09
2023-02-12T02:28:13.570Z,6.07
2023-02-12T02:29:13.504Z,6.07
2023-02-12T02:30:13.469Z,5.99
2023-02-12T02:31:13.621Z,6.02
2023-02-12T02:32:13.444Z,6.02
2023-02-12T02:33:13.436Z,6.02
2023-02-12T02:34:13.431Z,6.01
2023-02-12T02:35:13.415Z,5.97
2023-02-12T02:36:13.392Z,5.94
2023-02-12T02:37:13.412Z,5.94
2023-02-12T02:38:13.370Z,5.87
2023-02-12T02:39:13.365Z,5.80
2023-02-12T02:40:13.337Z,5.73
2023-02-12T02:41:13.328Z,5.71
2023-02-12T02:42:13.311Z,5.71
2023-02-12T02:43:13.303Z,5.75
2023-02-12T02:44:13.303Z,5.82
2023-02-12T02:45:13.281Z,5.87
2023-02-12T02:46:13.329Z,5.84
2023-02-12T02:47:13.250Z,5.86
2023-02-12T02:48:13.238Z,5.91
2023-02-12T02:49:13.242Z,5.93
2023-02-12T02:50:13.205Z,5.98
2023-02-12T02:51:13.196Z,5.97
2023-02-12T02:52:13.182Z,5.93
2023-02-12T02:53:13.240Z,5.91
2023-02-12T02:54:13.176Z,5.90
2023-02-12T02:55:13.147Z,5.91
2023-02-12T02:56:13.133Z,5.86
2023-02-12T02:57:13.126Z,5.84
2023-02-12T02:58:13.106Z,5.86
2023-02-12T02:59:13.114Z,5.89
2023-02-12T03:00:13.080Z,5.84
2023-02-12T03:01:13.107Z,5.84
2023-02-12T03:02:13.053Z,5.79
2023-02-12T03:03:13.051Z,5.84
2023-02-12T03:04:13.041Z,5.82
2023-02-12T03:05:13.031Z,5.84
2023-02-12T03:06:13.009Z,5.82
2023-02-12T03:07:12.987Z,5.68
2023-02-12T03:08:12.970Z,5.65
2023-02-12T03:09:13.008Z,5.65
2023-02-12T03:10:12.958Z,5.64
2023-02-12T03:11:12.937Z,5.62
2023-02-12T03:12:12.919Z,5.62
2023-02-12T03:13:12.911Z,5.66
2023-02-12T03:14:12.896Z,5.69
2023-02-12T03:15:12.901Z,5.66
2023-02-12T03:16:12.889Z,5.65
2023-02-12T03:17:12.873Z,5.61
2023-02-12T03:18:12.842Z,5.61
2023-02-12T03:19:12.889Z,5.68
2023-02-12T03:20:12.838Z,5.75
2023-02-12T03:21:12.807Z,5.79
2023-02-12T03:22:12.797Z,5.83
2023-02-12T03:23:12.787Z,5.89
2023-02-12T03:24:12.770Z,5.93
2023-02-12T03:25:12.798Z,5.97
2023-02-12T03:26:12.754Z,6.02
2023-02-12T03:27:12.736Z,6.05
2023-02-12T03:28:12.758Z,6.07
2023-02-12T03:29:12.706Z,6.05
2023-02-12T03:30:12.710Z,6.09
2023-02-12T03:31:12.763Z,6.08
2023-02-12T03:32:12.670Z,6.09
2023-02-12T03:33:12.652Z,6.05
2023-02-12T03:34:12.639Z,6.04
2023-02-12T03:35:12.652Z,6.02
2023-02-12T03:36:12.613Z,6.08
2023-02-12T03:37:12.602Z,6.12
2023-02-12T03:38:12.592Z,6.12
2023-02-12T03:39:12.574Z,6.09
2023-02-12T03:40:12.578Z,6.07
2023-02-12T03:41:12.584Z,6.07
2023-02-12T03:42:12.537Z,6.05
2023-02-12T03:43:12.523Z,6.05
2023-02-12T03:44:12.514Z,6.05
2023-02-12T03:45:12.511Z,5.98
2023-02-12T03:46:12.528Z,6.04
2023-02-12T03:47:12.471Z,5.98
2023-02-12T03:48:12.473Z,6.04
2023-02-12T03:49:12.448Z,6.11
2023-02-12T03:50:12.464Z,6.08
2023-02-12T03:51:12.425Z,6.14
2023-02-12T03:52:12.410Z,6.12
2023-02-12T03:53:12.403Z,6.17
2023-02-12T03:54:12.386Z,6.12
2023-02-12T03:55:12.386Z,6.17
2023-02-12T03:56:12.354Z,6.22
2023-02-12T03:57:12.369Z,6.17
2023-02-12T03:58:12.329Z,6.17
2023-02-12T03:59:12.413Z,6.22
2023-02-12T04:00:12.316Z,6.16
2023-02-12T04:01:12.425Z,6.16
2023-02-12T04:02:12.337Z,6.17
2023-02-12T04:03:12.266Z,6.12
2023-02-12T04:04:12.261Z,6.16
2023-02-12T04:05:12.251Z,6.16
2023-02-12T04:06:12.221Z,6.17
2023-02-12T04:07:12.209Z,6.09
2023-02-12T04:08:12.198Z,6.07
2023-02-12T04:09:12.180Z,6.05
2023-02-12T04:10:12.181Z,6.08
2023-02-12T04:11:12.158Z,6.02
2023-02-12T04:12:12.143Z,6.01
2023-02-12T04:13:12.159Z,5.93
2023-02-12T04:14:12.114Z,5.94
2023-02-12T04:15:12.125Z,5.86
2023-02-12T04:16:12.127Z,5.84
2023-02-12T04:17:12.077Z,5.89
2023-02-12T04:18:12.063Z,5.82
2023-02-12T04:19:12.056Z,5.84
2023-02-12T04:20:12.078Z,5.82
2023-02-12T04:21:12.027Z,5.84
2023-02-12T04:22:12.009Z,5.86
2023-02-12T04:23:11.997Z,5.84
2023-02-12T04:24:11.986Z,5.72
2023-02-12T04:25:11.975Z,5.68
2023-02-12T04:26:11.982Z,5.66
2023-02-12T04:27:11.957Z,5.73
2023-02-12T04:28:12.010Z,5.83
2023-02-12T04:29:11.947Z,5.86
2023-02-12T04:30:11.911Z,5.91
2023-02-12T04:31:12.105Z,5.91
2023-02-12T04:32:11.881Z,5.98
2023-02-12T04:33:11.880Z,5.97
2023-02-12T04:34:11.857Z,6.04
2023-02-12T04:35:11.850Z,5.98
2023-02-12T04:36:11.848Z,6.02
2023-02-12T04:37:11.824Z,6.05
2023-02-12T04:38:11.817Z,6.09
2023-02-12T04:39:11.801Z,6.01
2023-02-12T04:40:11.788Z,6.05
2023-02-12T04:41:11.791Z,6.07
2023-02-12T04:42:11.760Z,6.09
2023-02-12T04:43:11.742Z,6.14
2023-02-12T04:44:11.733Z,6.17
2023-02-12T04:45:12.511Z,6.12
2023-02-12T04:46:11.815Z,6.14
2023-02-12T04:47:11.690Z,6.19
2023-02-12T04:48:11.679Z,6.19
2023-02-12T04:49:11.670Z,6.27
2023-02-12T04:50:11.651Z,6.27
2023-02-12T04:51:11.655Z,6.20
2023-02-12T04:52:11.632Z,6.16
2023-02-12T04:53:11.620Z,6.17
2023-02-12T04:54:11.599Z,6.19
2023-02-12T04:55:11.591Z,6.09
2023-02-12T04:56:11.591Z,5.93
2023-02-12T04:57:11.564Z,5.94
2023-02-12T04:58:11.549Z,5.94
2023-02-12T04:59:11.545Z,5.94
2023-02-12T05:00:11.522Z,5.90
2023-02-12T05:01:11.571Z,5.84
2023-02-12T05:02:11.511Z,5.84
2023-02-12T05:03:11.490Z,5.73
2023-02-12T05:04:11.473Z,5.65
2023-02-12T05:05:11.500Z,5.57
2023-02-12T05:06:11.466Z,5.57
2023-02-12T05:07:11.432Z,5.54
2023-02-12T05:08:11.423Z,5.59
2023-02-12T05:09:11.409Z,5.61
2023-02-12T05:10:11.396Z,5.66
2023-02-12T05:11:11.399Z,5.69
2023-02-12T05:12:11.365Z,5.80
2023-02-12T05:13:11.356Z,5.83
2023-02-12T05:14:11.347Z,5.79
2023-02-12T05:15:11.341Z,5.80
2023-02-12T05:16:11.356Z,5.90
2023-02-12T05:17:11.327Z,5.90
2023-02-12T05:18:11.291Z,6.01
2023-02-12T05:19:11.291Z,5.97
2023-02-12T05:20:11.265Z,6.01
2023-02-12T05:21:11.267Z,6.05
2023-02-12T05:22:11.238Z,6.08
2023-02-12T05:23:11.222Z,6.07
2023-02-12T05:24:11.216Z,6.05
2023-02-12T05:25:11.202Z,6.11
2023-02-12T05:26:11.201Z,6.08
2023-02-12T05:27:11.182Z,6.12
2023-02-12T05:28:11.205Z,6.11
2023-02-12T05:29:11.145Z,6.12
2023-02-12T05:30:11.136Z,6.16
2023-02-12T05:31:11.310Z,6.14
2023-02-12T05:32:11.219Z,6.16
2023-02-12T05:33:11.115Z,6.14
2023-02-12T05:34:11.087Z,6.16
2023-02-12T05:35:11.072Z,6.12
2023-02-12T05:36:11.073Z,6.12
2023-02-12T05:37:11.054Z,6.14
2023-02-12T05:38:11.033Z,6.09
2023-02-12T05:39:11.009Z,6.16
2023-02-12T05:40:10.997Z,6.12
2023-02-12T05:41:10.986Z,6.11
2023-02-12T05:42:10.989Z,6.12
2023-02-12T05:43:10.959Z,6.16
2023-02-12T05:44:10.948Z,6.16
2023-02-12T05:45:10.930Z,6.12
2023-02-12T05:46:11.028Z,6.14
2023-02-12T05:47:10.925Z,6.16
2023-02-12T05:48:10.898Z,6.16
2023-02-12T05:49:10.914Z,6.16
2023-02-12T05:50:10.867Z,6.14
2023-02-12T05:51:10.855Z,6.17
2023-02-12T05:52:10.880Z,6.11
2023-02-12T05:53:10.838Z,6.14
2023-02-12T05:54:10.815Z,6.14
2023-02-12T05:55:10.817Z,5.98
2023-02-12T05:56:10.797Z,5.94
2023-02-12T05:57:10.793Z,5.93
2023-02-12T05:58:10.773Z,5.90
2023-02-12T05:59:10.745Z,5.83
2023-02-12T06:00:10.735Z,5.83
2023-02-12T06:01:10.722Z,5.86
2023-02-12T06:02:10.736Z,5.86
2023-02-12T06:03:10.700Z,5.93
2023-02-12T06:04:10.794Z,5.94
2023-02-12T06:05:10.698Z,5.87
2023-02-12T06:06:10.670Z,5.84
2023-02-12T06:07:10.674Z,5.91
2023-02-12T06:08:10.632Z,5.97
2023-02-12T06:09:10.619Z,5.99
2023-02-12T06:10:10.606Z,6.02
2023-02-12T06:11:10.594Z,6.07
2023-02-12T06:12:10.602Z,6.11
2023-02-12T06:13:10.566Z,6.08
2023-02-12T06:14:10.561Z,6.07
2023-02-12T06:15:10.542Z,5.94
2023-02-12T06:16:10.606Z,5.87
2023-02-12T06:17:10.529Z,5.83
2023-02-12T06:18:10.504Z,5.82
2023-02-12T06:19:10.486Z,5.82
2023-02-12T06:20:10.479Z,5.76
2023-02-12T06:21:10.492Z,5.80
2023-02-12T06:22:10.466Z,5.76
2023-02-12T06:23:10.435Z,5.72
2023-02-12T06:24:10.422Z,5.73
2023-02-12T06:25:10.415Z,5.75
2023-02-12T06:26:10.395Z,5.75
2023-02-12T06:27:11.223Z,5.75
2023-02-12T06:28:10.420Z,5.80
2023-02-12T06:29:10.366Z,5.89
2023-02-12T06:30:10.356Z,5.91
2023-02-12T06:31:10.462Z,5.99
2023-02-12T06:32:10.444Z,6.02
2023-02-12T06:33:10.311Z,6.09
2023-02-12T06:34:10.306Z,6.12
2023-02-12T06:35:10.282Z,6.12
2023-02-12T06:36:10.268Z,6.09
2023-02-12T06:37:10.309Z,6.01
2023-02-12T06:38:10.246Z,5.93
2023-02-12T06:39:10.225Z,5.91
2023-02-12T06:40:10.218Z,5.89
2023-02-12T06:41:10.205Z,5.93
2023-02-12T06:42:10.229Z,5.99
2023-02-12T06:43:10.190Z,6.01
2023-02-12T06:44:10.169Z,5.94
2023-02-12T06:45:10.149Z,5.97
2023-02-12T06:46:10.168Z,5.91
2023-02-12T06:47:10.131Z,5.91
2023-02-12T06:48:10.135Z,5.99
2023-02-12T06:49:10.100Z,6.05
2023-02-12T06:50:10.099Z,6.09
2023-02-12T06:51:10.096Z,6.02
2023-02-12T06:52:10.063Z,5.98
2023-02-12T06:53:10.091Z,5.99
2023-02-12T06:54:10.042Z,6.05
2023-02-12T06:55:10.024Z,6.04
2023-02-12T06:56:10.010Z,6.01
2023-02-12T06:57:10.006Z,5.90
2023-02-12T06:58:10.003Z,5.87
2023-02-12T06:59:09.977Z,5.82
2023-02-12T07:00:09.967Z,5.83
2023-02-12T07:01:10.074Z,5.86
2023-02-12T07:02:09.935Z,5.86
2023-02-12T07:03:09.967Z,5.89
2023-02-12T07:04:09.972Z,5.94
2023-02-12T07:05:09.891Z,5.97
2023-02-12T07:06:09.888Z,6.01
2023-02-12T07:07:09.867Z,6.07
2023-02-12T07:08:09.887Z,6.09
2023-02-12T07:09:09.863Z,6.07
2023-02-12T07:10:09.833Z,6.11
2023-02-12T07:11:09.819Z,6.19
2023-02-12T07:12:09.803Z,6.24
2023-02-12T07:13:09.806Z,6.22
2023-02-12T07:14:09.774Z,6.28
2023-02-12T07:15:09.761Z,6.31
2023-02-12T07:16:09.848Z,6.31
2023-02-12T07:17:09.753Z,6.42
2023-02-12T07:18:09.734Z,6.45
2023-02-12T07:19:09.708Z,6.45
2023-02-12T07:20:09.707Z,6.51
2023-02-12T07:21:09.690Z,6.49
2023-02-12T07:22:09.680Z,6.51
2023-02-12T07:23:09.704Z,6.54
2023-02-12T07:24:09.710Z,6.57
2023-02-12T07:25:09.656Z,6.59
2023-02-12T07:26:09.623Z,6.56
2023-02-12T07:27:09.609Z,6.63
2023-02-12T07:28:09.641Z,6.60
2023-02-12T07:29:09.583Z,6.63
2023-02-12T07:30:09.574Z,6.60
2023-02-12T07:31:09.764Z,6.56
2023-02-12T07:32:10.303Z,6.42
2023-02-12T07:33:09.546Z,6.38
2023-02-12T07:34:09.556Z,6.36
2023-02-12T07:35:09.517Z,6.45
2023-02-12T07:36:09.501Z,6.44
2023-02-12T07:37:09.477Z,6.41
2023-02-12T07:38:09.477Z,6.38
2023-02-12T07:39:09.451Z,6.44
2023-02-12T07:40:09.440Z,6.52
2023-02-12T07:41:10.754Z,6.52
2023-02-12T07:42:09.416Z,6.48
2023-02-12T07:43:09.415Z,6.44
2023-02-12T07:44:09.391Z,6.30
2023-02-12T07:45:09.376Z,6.24
2023-02-12T07:46:09.460Z,6.22
2023-02-12T07:47:09.347Z,6.24
2023-02-12T07:48:09.357Z,6.19
2023-02-12T07:49:09.328Z,6.17
2023-02-12T07:50:09.314Z,6.28
2023-02-12T07:51:09.305Z,6.39
2023-02-12T07:52:10.996Z,6.44
2023-02-12T07:53:09.303Z,6.49
2023-02-12T07:54:09.274Z,6.51
2023-02-12T07:55:09.247Z,6.59
2023-02-12T07:56:09.234Z,6.59
2023-02-12T07:57:09.245Z,6.63
2023-02-12T07:58:09.208Z,6.66
2023-02-12T07:59:09.207Z,6.72
2023-02-12T08:00:09.189Z,6.75
2023-02-12T08:01:09.164Z,6.79
2023-02-12T08:02:09.200Z,6.70
2023-02-12T08:03:09.141Z,6.74
2023-02-12T08:04:09.210Z,6.82
2023-02-12T08:05:09.128Z,6.82
2023-02-12T08:06:09.106Z,6.92
2023-02-12T08:07:09.088Z,6.95
2023-02-12T08:08:09.081Z,6.97
2023-02-12T08:09:09.077Z,7.02
2023-02-12T08:10:09.051Z,6.97
2023-02-12T08:11:09.039Z,6.96
2023-02-12T08:12:09.020Z,6.92
2023-02-12T08:13:09.031Z,6.97
2023-02-12T08:14:09.022Z,7.10
2023-02-12T08:15:08.980Z,7.02
2023-02-12T08:16:08.995Z,6.92
2023-02-12T08:17:08.955Z,6.93
2023-02-12T08:18:08.941Z,6.92
2023-02-12T08:19:18.749Z,6.87
2023-02-12T08:20:08.922Z,6.82
2023-02-12T08:21:08.902Z,6.88
2023-02-12T08:22:08.888Z,6.97
2023-02-12T08:23:08.876Z,7.03
2023-02-12T08:24:08.878Z,7.13
2023-02-12T08:25:08.856Z,7.21
2023-02-12T08:26:08.847Z,7.21
2023-02-12T08:27:08.826Z,7.33
2023-02-12T08:28:08.840Z,7.39
2023-02-12T08:29:08.831Z,7.39
2023-02-12T08:30:08.795Z,7.51
2023-02-12T08:31:08.808Z,7.50
2023-02-12T08:32:08.821Z,7.63
2023-02-12T08:33:08.754Z,7.66
2023-02-12T08:34:08.747Z,7.70
2023-02-12T08:35:08.724Z,7.72
2023-02-12T08:36:08.705Z,7.72
2023-02-12T08:37:08.697Z,7.77
2023-02-12T08:38:08.683Z,7.77
2023-02-12T08:39:08.683Z,7.82
2023-02-12T08:40:08.663Z,7.90
2023-02-12T08:41:08.692Z,7.88
2023-02-12T08:42:08.630Z,7.87
2023-02-12T08:43:08.616Z,7.77
2023-02-12T08:44:08.697Z,7.77
2023-02-12T08:45:08.613Z,7.87
2023-02-12T08:46:08.694Z,7.91
2023-02-12T08:47:08.562Z,7.94
2023-02-12T08:48:08.548Z,8.06
2023-02-12T08:49:08.545Z,8.05
2023-02-12T08:50:08.518Z,8.08
2023-02-12T08:51:08.507Z,8.10
2023-02-12T08:52:08.495Z,8.10
2023-02-12T08:53:08.477Z,8.19
2023-02-12T08:54:08.476Z,8.05
2023-02-12T08:55:08.454Z,7.91
2023-02-12T08:56:08.437Z,7.94
2023-02-12T08:57:08.432Z,7.94
2023-02-12T08:58:08.406Z,8.05
2023-02-12T08:59:08.415Z,8.12
2023-02-12T09:00:08.382Z,8.09
2023-02-12T09:01:08.427Z,7.95
2023-02-12T09:02:08.401Z,7.66
2023-02-12T09:03:08.347Z,7.40
2023-02-12T09:04:08.341Z,7.29
2023-02-12T09:05:08.315Z,7.13
2023-02-12T09:06:08.306Z,7.05
2023-02-12T09:07:10.775Z,7.06
2023-02-12T09:08:08.327Z,7.02
2023-02-12T09:09:08.294Z,6.99
2023-02-12T09:10:08.259Z,7.07
2023-02-12T09:11:08.286Z,7.10
2023-02-12T09:12:08.223Z,7.17
2023-02-12T09:13:08.215Z,7.20
2023-02-12T09:14:08.200Z,7.15
2023-02-12T09:15:08.200Z,7.14
2023-02-12T09:16:08.171Z,7.24
2023-02-12T09:17:08.253Z,7.35
2023-02-12T09:18:08.143Z,7.53
2023-02-12T09:19:08.143Z,7.70
2023-02-12T09:20:08.140Z,7.83
2023-02-12T09:21:08.112Z,8.00
2023-02-12T09:22:08.095Z,8.10
2023-02-12T09:23:08.081Z,8.28
2023-02-12T09:24:08.070Z,8.41
2023-02-12T09:25:08.072Z,8.49
2023-02-12T09:26:08.060Z,8.60
2023-02-12T09:27:08.029Z,8.64
2023-02-12T09:28:08.043Z,8.67
2023-02-12T09:29:08.005Z,8.81
2023-02-12T09:30:08.009Z,8.79
2023-02-12T09:31:08.068Z,8.92
2023-02-12T09:32:08.047Z,8.92
2023-02-12T09:33:08.005Z,8.97
2023-02-12T09:34:07.944Z,9.06
2023-02-12T09:35:07.942Z,9.08
2023-02-12T09:36:07.918Z,9.14
2023-02-12T09:37:07.904Z,9.13
2023-02-12T09:38:07.894Z,9.11
2023-02-12T09:39:07.878Z,8.87
2023-02-12T09:40:07.873Z,8.85
2023-02-12T09:41:07.846Z,8.95
2023-02-12T09:42:07.832Z,9.02
2023-02-12T09:43:07.825Z,9.10
2023-02-12T09:44:07.806Z,9.10
2023-02-12T09:45:07.808Z,8.97
2023-02-12T09:46:07.821Z,8.44
2023-02-12T09:47:07.769Z,8.13
2023-02-12T09:48:07.840Z,8.08
2023-02-12T09:49:07.766Z,8.26
2023-02-12T09:50:07.751Z,8.44
2023-02-12T09:51:07.718Z,8.58
2023-02-12T09:52:07.706Z,8.74
2023-02-12T09:53:07.700Z,8.87
2023-02-12T09:54:07.680Z,9.03
2023-02-12T09:55:07.677Z,9.08
2023-02-12T09:56:07.650Z,9.19
2023-02-12T09:57:07.657Z,9.34
2023-02-12T09:58:08.177Z,9.47
2023-02-12T09:59:07.617Z,9.58
2023-02-12T10:00:07.637Z,9.76
2023-02-12T10:01:07.621Z,9.86
2023-02-12T10:02:07.592Z,10.02
2023-02-12T10:03:07.574Z,10.16
2023-02-12T10:04:07.622Z,10.33
2023-02-12T10:05:07.784Z,10.57
2023-02-12T10:06:07.530Z,10.61
2023-02-12T10:07:07.511Z,10.37
2023-02-12T10:08:07.501Z,9.99
2023-02-12T10:09:07.506Z,9.99
2023-02-12T10:10:08.112Z,10.12
2023-02-12T10:11:07.461Z,10.25
2023-02-12T10:12:07.441Z,10.38
2023-02-12T10:13:07.450Z,10.49
2023-02-12T10:14:07.419Z,10.57
2023-02-12T10:15:07.421Z,10.64
2023-02-12T10:16:07.435Z,10.76
2023-02-12T10:17:07.388Z,10.87
2023-02-12T10:18:07.381Z,10.92
2023-02-12T10:19:07.368Z,10.94
2023-02-12T10:20:07.359Z,11.10
2023-02-12T10:21:07.371Z,11.11
2023-02-12T10:22:07.319Z,11.17
2023-02-12T10:23:07.299Z,11.15
2023-02-12T10:24:07.286Z,11.22
2023-02-12T10:25:07.320Z,11.29
2023-02-12T10:26:07.261Z,11.33
2023-02-12T10:27:07.252Z,11.45
2023-02-12T10:28:07.264Z,11.47
2023-02-12T10:29:07.222Z,11.57
2023-02-12T10:30:07.202Z,11.65
2023-02-12T10:31:07.344Z,11.81
2023-02-12T10:32:07.185Z,11.86
2023-02-12T10:33:07.166Z,11.59
2023-02-12T10:34:07.151Z,10.89
2023-02-12T10:35:07.146Z,11.14
2023-02-12T10:36:07.144Z,11.47
2023-02-12T10:37:07.142Z,11.22
2023-02-12T10:38:07.099Z,11.18
2023-02-12T10:39:07.099Z,11.44
2023-02-12T10:40:07.081Z,11.32
2023-02-12T10:41:07.075Z,10.75
2023-02-12T10:42:07.046Z,10.93
2023-02-12T10:43:09.062Z,10.49
2023-02-12T10:44:07.029Z,10.22
2023-02-12T10:45:07.005Z,10.02
2023-02-12T10:46:07.060Z,9.95
2023-02-12T10:47:07.085Z,10.07
2023-02-12T10:48:06.968Z,10.53
2023-02-12T10:49:06.951Z,11.14
2023-02-12T10:50:06.939Z,11.80
2023-02-12T10:51:06.944Z,12.31
2023-02-12T10:52:06.910Z,12.75
2023-02-12T10:53:06.921Z,12.67
2023-02-12T10:54:06.885Z,12.28
2023-02-12T10:55:06.868Z,12.70
2023-02-12T10:56:06.875Z,12.47
2023-02-12T10:57:06.929Z,12.24
2023-02-12T10:58:06.829Z,12.65
2023-02-12T10:59:06.818Z,13.15
2023-02-12T11:00:06.805Z,13.52
2023-02-12T11:01:06.803Z,14.41
2023-02-12T11:02:06.780Z,14.69
2023-02-12T11:03:06.778Z,15.03
2023-02-12T11:04:06.749Z,15.82
2023-02-12T11:05:06.805Z,16.51
2023-02-12T11:06:06.742Z,17.02
2023-02-12T11:07:06.732Z,17.54
2023-02-12T11:08:06.699Z,17.80
2023-02-12T11:09:06.714Z,17.63
2023-02-12T11:10:06.671Z,17.49
2023-02-12T11:11:06.672Z,17.26
2023-02-12T11:12:06.640Z,17.12
2023-02-12T11:13:06.635Z,15.98
2023-02-12T11:14:06.611Z,15.28
2023-02-12T11:15:06.604Z,15.11
2023-02-12T11:16:06.684Z,14.37
2023-02-12T11:17:06.700Z,13.87
2023-02-12T11:18:06.561Z,14.45
2023-02-12T11:19:06.554Z,15.11
2023-02-12T11:20:06.538Z,16.04
2023-02-12T11:21:06.555Z,16.78
2023-02-12T11:22:06.508Z,17.45
2023-02-12T11:23:06.497Z,17.68
2023-02-12T11:24:06.486Z,18.07
2023-02-12T11:25:06.496Z,18.45
2023-02-12T11:26:06.505Z,18.84
2023-02-12T11:27:06.445Z,19.58
2023-02-12T11:28:06.531Z,19.99
2023-02-12T11:29:07.282Z,20.21
2023-02-12T11:30:06.404Z,20.43
2023-02-12T11:31:06.465Z,20.58
2023-02-12T11:32:06.440Z,20.88
2023-02-12T11:33:06.377Z,17.19
2023-02-12T11:34:06.355Z,15.21
2023-02-12T11:35:06.361Z,16.29
2023-02-12T11:36:07.453Z,17.76
2023-02-12T11:37:06.330Z,18.41
2023-02-12T11:38:06.299Z,18.37
2023-02-12T11:39:06.286Z,18.90
2023-02-12T11:40:06.290Z,19.14
2023-02-12T11:41:06.290Z,19.39
2023-02-12T11:42:06.266Z,19.49
2023-02-12T11:43:06.245Z,19.48
2023-02-12T11:44:06.222Z,18.07
2023-02-12T11:45:06.217Z,18.33
2023-02-12T11:46:06.522Z,18.25
2023-02-12T11:47:06.209Z,18.65
2023-02-12T11:48:06.175Z,18.62
2023-02-12T11:49:06.160Z,18.31
2023-02-12T11:50:06.195Z,17.87
2023-02-12T11:51:06.170Z,17.51
2023-02-12T11:52:06.135Z,17.45
2023-02-12T11:53:06.110Z,17.05
2023-02-12T11:54:06.098Z,15.97
2023-02-12T11:55:06.081Z,15.47
2023-02-12T11:56:06.065Z,15.37
2023-02-12T11:57:06.101Z,14.37
2023-02-12T11:58:06.048Z,14.29
2023-02-12T11:59:06.028Z,14.22
2023-02-12T12:00:06.015Z,14.44
2023-02-12T12:01:05.999Z,14.84
2023-02-12T12:02:06.173Z,15.46
2023-02-12T12:03:06.058Z,15.82
2023-02-12T12:04:05.990Z,14.66
2023-02-12T12:05:05.953Z,13.68
2023-02-12T12:06:05.938Z,14.20
2023-02-12T12:07:05.938Z,14.36
2023-02-12T12:08:05.903Z,13.60
2023-02-12T12:09:05.893Z,13.16
2023-02-12T12:10:05.887Z,13.39
2023-02-12T12:11:05.868Z,13.74
2023-02-12T12:12:05.866Z,14.22
2023-02-12T12:13:05.871Z,13.15
2023-02-12T12:14:05.830Z,12.78
2023-02-12T12:15:05.813Z,12.93
2023-02-12T12:16:05.831Z,13.25
2023-02-12T12:17:05.810Z,13.63
2023-02-12T12:18:06.022Z,13.81
2023-02-12T12:19:05.781Z,14.11
2023-02-12T12:20:05.749Z,13.96
2023-02-12T12:21:05.732Z,14.11
2023-02-12T12:22:05.733Z,14.22
2023-02-12T12:23:05.710Z,14.14
2023-02-12T12:24:05.707Z,14.35
2023-02-12T12:25:06.479Z,14.69
2023-02-12T12:26:05.684Z,15.76
2023-02-12T12:27:05.672Z,16.86
2023-02-12T12:28:05.843Z,17.87
2023-02-12T12:29:08.194Z,18.63
2023-02-12T12:30:05.618Z,19.16
2023-02-12T12:31:05.666Z,20.11
2023-02-12T12:32:05.629Z,20.70
2023-02-12T12:33:05.578Z,21.09
2023-02-12T12:34:05.565Z,21.02
2023-02-12T12:35:05.558Z,21.07
2023-02-12T12:36:05.539Z,21.27
2023-02-12T12:37:05.547Z,21.51
2023-02-12T12:38:05.513Z,22.17
2023-02-12T12:39:05.507Z,21.35
2023-02-12T12:40:05.489Z,21.09
2023-02-12T12:41:05.472Z,20.87
2023-02-12T12:42:05.478Z,21.02
2023-02-12T12:43:05.459Z,21.07
2023-02-12T12:44:05.438Z,21.09
2023-02-12T12:45:05.450Z,20.81
2023-02-12T12:46:06.073Z,20.25
2023-02-12T12:47:05.426Z,20.09
2023-02-12T12:48:05.385Z,19.54
2023-02-12T12:49:05.366Z,18.99
2023-02-12T12:50:05.357Z,19.33
2023-02-12T12:51:05.365Z,18.74
2023-02-12T12:52:05.329Z,18.38
2023-02-12T12:53:05.334Z,17.85
2023-02-12T12:54:05.305Z,17.27
2023-02-12T12:55:05.289Z,16.68
2023-02-12T12:56:06.167Z,16.00
2023-02-12T12:57:05.347Z,15.61
2023-02-12T12:58:05.270Z,15.51
2023-02-12T12:59:05.235Z,15.37
2023-02-12T13:00:05.224Z,15.00
2023-02-12T13:01:05.299Z,15.17
2023-02-12T13:02:05.230Z,15.39
2023-02-12T13:03:05.210Z,16.36
2023-02-12T13:04:05.172Z,16.46
2023-02-12T13:05:05.168Z,16.49
2023-02-12T13:06:05.147Z,16.32
2023-02-12T13:07:05.139Z,16.38
2023-02-12T13:08:05.139Z,16.43
2023-02-12T13:09:05.108Z,16.23
2023-02-12T13:10:05.099Z,16.33
2023-02-12T13:11:05.084Z,16.71
2023-02-12T13:12:05.069Z,17.27